This is the latest recevied weather packets stored in our database for station/object HB9EKO-12. If no packets are shown the sender has not sent any weather packets the latest 10 day(s).
| Time | Temp. | Humidity | Pressure | Rain* | Wind** | Luminosity | Snow |
|---|---|---|---|---|---|---|---|
| 1777454716 | 16.11° C | 48% | 1019 hPa | - | - | - | - |
| 1777453810 | 16.11° C | 49% | 1019 hPa | - | - | - | - |
| 1777452905 | 15.56° C | 48% | 1019 hPa | - | - | - | - |
| 1777452000 | 15° C | 51% | 1019 hPa | - | - | - | - |
| 1777451094 | 13.89° C | 52% | 1019 hPa | - | - | - | - |
| 1777450189 | 13.33° C | 51% | 1019 hPa | - | - | - | - |
| 1777449284 | 13.33° C | 53% | 1019 hPa | - | - | - | - |
| 1777448379 | 12.78° C | 53% | 1019 hPa | - | - | - | - |
| 1777447474 | 15° C | 48% | 1019 hPa | - | - | - | - |
| 1777446568 | 12.78° C | 54% | 1019 hPa | - | - | - | - |
| 1777445663 | 12.78° C | 51% | 1019 hPa | - | - | - | - |
| 1777444758 | 13.33° C | 49% | 1019 hPa | - | - | - | - |
| 1777443853 | 13.33° C | 51% | 1019 hPa | - | - | - | - |
| 1777442947 | 13.33° C | 50% | 1019 hPa | - | - | - | - |
| 1777442042 | 14.44° C | 48% | 1019 hPa | - | - | - | - |
| 1777441137 | 13.33° C | 50% | 1019 hPa | - | - | - | - |
| 1777440232 | 13.33° C | 49% | 1018 hPa | - | - | - | - |
| 1777439326 | 13.89° C | 49% | 1018 hPa | - | - | - | - |
| 1777438421 | 13.33° C | 49% | 1018 hPa | - | - | - | - |
| 1777437516 | 13.33° C | 49% | 1018 hPa | - | - | - | - |
| 1777436611 | 13.89° C | 49% | 1018 hPa | - | - | - | - |
| 1777435705 | 13.33° C | 49% | 1018 hPa | - | - | - | - |
| 1777434800 | 13.33° C | 50% | 1018 hPa | - | - | - | - |
| 1777433895 | 13.33° C | 50% | 1018 hPa | - | - | - | - |
| 1777432990 | 13.33° C | 51% | 1018 hPa | - | - | - | - |
* Rain since midnight (hover to see other rain measurements)
** Current wind speed in m/s (hover to see current wind gust speed)